< < Back
Terminal Aerodrome Forecast


Current Version              Previous Versions:   1  2  3  4  5  6  7  8  9  

Terminal Aerodrome Forecast

761
FTUS44 KOHX 300526
TAFBNA
TAF
KBNA 300526Z 3006/0106 20003KT P6SM OVC120
     FM300900 00000KT 4SM BR SCT120
     FM301400 23005KT P6SM BKN120
     FM302000 27007KT P6SM VCTS SCT040CB BKN120 BKN250=

Latest METAR

260
SAUS70 KWBC 301500 RRG
MTRBNA
METAR KBNA 301453Z 24004KT 10SM FEW055 SCT080 OVC230 26/22 A2996 RMK AO2
SLP137 T02610222 51010 $


USA.gov is the U.S. government's official web portal to all federal, state and local government web resources and services.